Terminal Aerodrome Forecast
Issued by NWS Shreveport, LA

Home | Current Version | Previous Version | Text Only | Print | Product List | Glossary On
Versions: 1 2 3 4 5 6 7 8 9 10 11 12 13 14 15
102
FTUS44 KSHV 242320
TAFLFK
TAF
KLFK 242320Z 2500/2524 VRB04KT P6SM SKC
      TEMPO 2510/2514 5SM BR
     FM251400 20007KT P6SM SCT250=

USA.gov is the U.S. government's official web portal to all federal, state and local government web resources and services.